createdAt,value
2018-12-13T00:00:45.802Z,91.71
2018-12-13T00:01:45.789Z,91.81
2018-12-13T00:02:45.813Z,91.71
2018-12-13T00:03:45.792Z,92.02
2018-12-13T00:04:45.788Z,91.81
2018-12-13T00:05:45.773Z,92.02
2018-12-13T00:06:45.756Z,92.02
2018-12-13T00:07:45.754Z,91.91
2018-12-13T00:08:45.736Z,91.91
2018-12-13T00:09:45.720Z,92.12
2018-12-13T00:10:45.715Z,92.43
2018-12-13T00:11:45.702Z,92.12
2018-12-13T00:12:45.693Z,92.43
2018-12-13T00:13:45.684Z,92.43
2018-12-13T00:14:45.670Z,92.22
2018-12-13T00:15:45.662Z,92.22
2018-12-13T00:16:45.651Z,92.22
2018-12-13T00:17:45.621Z,92.33
2018-12-13T00:18:45.604Z,92.22
2018-12-13T00:19:45.594Z,92.18
2018-12-13T00:20:45.582Z,92.12
2018-12-13T00:21:45.631Z,92.02
2018-12-13T00:22:45.561Z,91.97
2018-12-13T00:23:45.579Z,92.12
2018-12-13T00:24:45.540Z,92.02
2018-12-13T00:25:45.527Z,92.12
2018-12-13T00:26:45.517Z,92.12
2018-12-13T00:27:45.505Z,92.08
2018-12-13T00:28:45.495Z,92.22
2018-12-13T00:29:45.488Z,92.64
2018-12-13T00:30:45.477Z,92.74
2018-12-13T00:31:45.464Z,92.22
2018-12-13T00:32:45.452Z,92.12
2018-12-13T00:33:45.445Z,92.33
2018-12-13T00:34:45.436Z,92.80
2018-12-13T00:35:45.421Z,92.54
2018-12-13T00:36:45.407Z,93.05
2018-12-13T00:37:45.398Z,93.05
2018-12-13T00:38:45.386Z,93.05
2018-12-13T00:39:45.375Z,93.01
2018-12-13T00:40:45.364Z,92.95
2018-12-13T00:41:45.354Z,93.01
2018-12-13T00:42:45.376Z,93.01
2018-12-13T00:43:45.331Z,92.95
2018-12-13T00:44:45.325Z,92.91
2018-12-13T00:45:45.312Z,92.91
2018-12-13T00:46:45.301Z,93.01
2018-12-13T00:47:45.288Z,92.95
2018-12-13T00:48:45.281Z,92.60
2018-12-13T00:49:45.267Z,92.60
2018-12-13T00:50:45.259Z,92.22
2018-12-13T00:51:45.249Z,92.33
2018-12-13T00:52:45.238Z,92.18
2018-12-13T00:53:45.223Z,92.70
2018-12-13T00:54:45.212Z,92.43
2018-12-13T00:55:45.205Z,92.33
2018-12-13T00:56:45.190Z,92.91
2018-12-13T00:57:45.180Z,93.16
2018-12-13T00:58:45.170Z,92.43
2018-12-13T00:59:45.158Z,92.22
2018-12-13T01:00:45.150Z,92.64
2018-12-13T01:01:45.137Z,92.95
2018-12-13T01:02:45.127Z,93.05
2018-12-13T01:03:45.117Z,92.85
2018-12-13T01:04:45.105Z,92.95
2018-12-13T01:05:45.093Z,92.64
2018-12-13T01:06:46.077Z,92.95
2018-12-13T01:07:45.072Z,92.80
2018-12-13T01:08:45.063Z,92.95
2018-12-13T01:09:45.055Z,92.95
2018-12-13T01:10:45.040Z,93.16
2018-12-13T01:11:45.029Z,92.95
2018-12-13T01:12:45.022Z,92.85
2018-12-13T01:13:45.016Z,92.74
2018-12-13T01:14:44.996Z,92.74
2018-12-13T01:15:44.985Z,92.64
2018-12-13T01:16:44.976Z,92.85
2018-12-13T01:17:44.966Z,92.85
2018-12-13T01:18:44.952Z,92.85
2018-12-13T01:19:44.941Z,92.74
2018-12-13T01:20:44.936Z,92.74
2018-12-13T01:21:44.919Z,92.74
2018-12-13T01:22:44.910Z,92.74
2018-12-13T01:23:44.898Z,92.64
2018-12-13T01:24:44.887Z,92.64
2018-12-13T01:25:44.877Z,92.74
2018-12-13T01:26:44.871Z,92.85
2018-12-13T01:27:44.854Z,92.85
2018-12-13T01:28:44.846Z,92.64
2018-12-13T01:29:44.836Z,92.74
2018-12-13T01:30:44.825Z,92.85
2018-12-13T01:31:44.811Z,92.85
2018-12-13T01:32:44.802Z,92.85
2018-12-13T01:33:44.789Z,92.95
2018-12-13T01:34:44.780Z,93.16
2018-12-13T01:35:44.768Z,93.16
2018-12-13T01:36:44.756Z,92.85
2018-12-13T01:37:44.746Z,92.85
2018-12-13T01:38:44.739Z,92.95
2018-12-13T01:39:44.725Z,92.85
2018-12-13T01:40:44.716Z,92.95
2018-12-13T01:41:44.702Z,92.95
2018-12-13T01:42:44.693Z,93.16
2018-12-13T01:43:44.687Z,92.95
2018-12-13T01:44:44.670Z,93.05
2018-12-13T01:46:04.286Z,92.95
2018-12-13T01:47:27.714Z,92.85
2018-12-13T01:48:27.703Z,92.95
2018-12-13T01:49:27.691Z,92.74
2018-12-13T01:50:27.686Z,92.64
2018-12-13T01:51:27.669Z,92.64
2018-12-13T01:52:27.663Z,92.74
2018-12-13T01:53:27.647Z,92.85
2018-12-13T01:54:27.638Z,92.85
2018-12-13T01:55:27.628Z,92.95
2018-12-13T01:56:27.614Z,92.54
2018-12-13T01:57:27.603Z,92.33
2018-12-13T01:58:27.593Z,92.54
2018-12-13T01:59:27.585Z,92.74
2018-12-13T02:00:27.571Z,92.64
2018-12-13T02:01:27.559Z,92.95
2018-12-13T02:02:27.548Z,92.95
2018-12-13T02:03:27.540Z,92.74
2018-12-13T02:04:27.544Z,93.05
2018-12-13T02:05:27.515Z,92.85
2018-12-13T02:06:27.508Z,92.95
2018-12-13T02:07:27.495Z,93.05
2018-12-13T02:08:27.485Z,93.27
2018-12-13T02:09:27.478Z,92.33
2018-12-13T02:10:27.461Z,93.05
2018-12-13T02:11:27.450Z,92.95
2018-12-13T02:12:27.441Z,92.99
2018-12-13T02:13:27.429Z,92.85
2018-12-13T02:14:27.425Z,92.64
2018-12-13T02:15:27.411Z,92.85
2018-12-13T02:16:27.397Z,93.05
2018-12-13T02:17:27.388Z,92.85
2018-12-13T02:18:27.375Z,92.95
2018-12-13T02:19:27.365Z,92.85
2018-12-13T02:20:27.353Z,92.79
2018-12-13T02:21:27.347Z,92.95
2018-12-13T02:22:27.333Z,92.85
2018-12-13T02:23:27.320Z,92.85
2018-12-13T02:24:27.310Z,93.05
2018-12-13T02:25:27.299Z,92.89
2018-12-13T02:26:27.289Z,92.95
2018-12-13T02:27:27.282Z,92.99
2018-12-13T02:28:27.267Z,92.95
2018-12-13T02:29:27.256Z,93.16
2018-12-13T02:30:27.245Z,92.89
2018-12-13T02:31:27.240Z,92.85
2018-12-13T02:32:27.228Z,92.85
2018-12-13T02:33:27.212Z,92.85
2018-12-13T02:34:27.202Z,92.74
2018-12-13T02:35:27.191Z,92.64
2018-12-13T02:36:27.179Z,92.74
2018-12-13T02:37:27.170Z,92.85
2018-12-13T02:38:27.158Z,92.85
2018-12-13T02:39:27.154Z,92.95
2018-12-13T02:40:27.135Z,92.95
2018-12-13T02:41:27.127Z,93.16
2018-12-13T02:42:27.118Z,92.22
2018-12-13T02:43:27.103Z,92.22
2018-12-13T02:44:27.098Z,92.54
2018-12-13T02:45:27.092Z,92.22
2018-12-13T02:46:27.103Z,92.12
2018-12-13T02:47:27.094Z,92.29
2018-12-13T02:48:27.049Z,93.01
2018-12-13T02:49:27.044Z,93.05
2018-12-13T02:50:27.037Z,93.12
2018-12-13T02:51:27.020Z,92.29
2018-12-13T02:52:27.009Z,92.12
2018-12-13T02:53:26.997Z,92.22
2018-12-13T02:54:26.988Z,92.74
2018-12-13T02:55:26.982Z,92.22
2018-12-13T02:56:26.961Z,92.29
2018-12-13T02:57:26.951Z,92.29
2018-12-13T02:58:26.943Z,91.97
2018-12-13T02:59:26.930Z,92.22
2018-12-13T03:00:26.930Z,92.18
2018-12-13T03:01:26.912Z,91.87
2018-12-13T03:02:26.897Z,92.43
2018-12-13T03:03:26.886Z,92.33
2018-12-13T03:04:26.876Z,92.22
2018-12-13T03:05:26.865Z,92.12
2018-12-13T03:06:26.857Z,92.43
2018-12-13T03:07:26.845Z,92.22
2018-12-13T03:08:26.833Z,92.12
2018-12-13T03:09:26.823Z,92.02
2018-12-13T03:10:26.810Z,92.43
2018-12-13T03:11:26.804Z,92.54
2018-12-13T03:12:26.793Z,92.54
2018-12-13T03:13:26.777Z,92.33
2018-12-13T03:14:26.766Z,92.22
2018-12-13T03:15:26.759Z,92.22
2018-12-13T03:16:26.745Z,92.22
2018-12-13T03:17:26.740Z,92.33
2018-12-13T03:18:26.729Z,92.33
2018-12-13T03:19:26.731Z,92.22
2018-12-13T03:20:26.701Z,92.22
2018-12-13T03:21:26.690Z,92.22
2018-12-13T03:22:26.680Z,92.22
2018-12-13T03:23:26.671Z,92.12
2018-12-13T03:24:26.658Z,92.33
2018-12-13T03:25:26.650Z,92.37
2018-12-13T03:26:26.636Z,92.43
2018-12-13T03:27:26.626Z,92.16
2018-12-13T03:28:26.617Z,92.54
2018-12-13T03:29:26.606Z,92.95
2018-12-13T03:30:26.595Z,92.89
2018-12-13T03:31:26.584Z,92.89
2018-12-13T03:32:26.574Z,92.74
2018-12-13T03:33:26.564Z,92.74
2018-12-13T03:34:26.552Z,92.85
2018-12-13T03:35:26.544Z,92.74
2018-12-13T03:36:26.529Z,92.95
2018-12-13T03:37:26.521Z,92.95
2018-12-13T03:38:26.505Z,92.95
2018-12-13T03:39:26.502Z,92.74
2018-12-13T03:40:26.491Z,92.79
2018-12-13T03:41:26.481Z,92.85
2018-12-13T03:42:26.465Z,92.85
2018-12-13T03:43:26.453Z,92.85
2018-12-13T03:44:26.444Z,92.95
2018-12-13T03:45:26.433Z,92.79
2018-12-13T03:46:26.421Z,92.95
2018-12-13T03:47:26.407Z,92.95
2018-12-13T03:48:26.397Z,92.85
2018-12-13T03:49:26.387Z,92.95
2018-12-13T03:50:26.375Z,92.95
2018-12-13T03:51:26.366Z,93.05
2018-12-13T03:52:26.357Z,92.99
2018-12-13T03:53:26.343Z,92.95
2018-12-13T03:54:26.334Z,92.74
2018-12-13T03:55:26.321Z,92.95
2018-12-13T03:56:26.309Z,93.05
2018-12-13T03:57:26.303Z,92.85
2018-12-13T03:58:26.293Z,93.10
2018-12-13T03:59:26.285Z,92.85
2018-12-13T04:00:26.266Z,92.54
2018-12-13T04:01:26.256Z,92.33
2018-12-13T04:02:26.246Z,92.33
2018-12-13T04:03:26.235Z,92.12
2018-12-13T04:04:26.223Z,92.64
2018-12-13T04:05:26.211Z,92.95
2018-12-13T04:06:26.201Z,93.10
2018-12-13T04:07:27.830Z,92.64
2018-12-13T04:08:26.180Z,92.64
2018-12-13T04:09:26.172Z,92.43
2018-12-13T04:10:26.158Z,92.12
2018-12-13T04:11:26.148Z,92.54
2018-12-13T04:12:26.137Z,92.22
2018-12-13T04:13:26.127Z,92.43
2018-12-13T04:14:26.115Z,92.22
2018-12-13T04:15:26.107Z,92.54
2018-12-13T04:16:26.095Z,92.33
2018-12-13T04:17:26.084Z,92.12
2018-12-13T04:18:26.070Z,92.02
2018-12-13T04:19:26.063Z,92.12
2018-12-13T04:20:26.054Z,92.22
2018-12-13T04:21:26.039Z,91.91
2018-12-13T04:22:26.027Z,92.02
2018-12-13T04:23:26.014Z,91.81
2018-12-13T04:24:26.004Z,92.02
2018-12-13T04:25:25.994Z,91.71
2018-12-13T04:26:25.984Z,91.50
2018-12-13T04:27:25.971Z,91.71
2018-12-13T04:28:46.596Z,91.91
2018-12-13T04:29:56.931Z,92.12
2018-12-13T04:33:52.314Z,91.66
2018-12-13T04:34:52.274Z,91.60
2018-12-13T04:35:52.271Z,91.56
2018-12-13T04:36:52.255Z,91.50
2018-12-13T04:37:52.242Z,91.50
2018-12-13T04:38:52.231Z,92.02
2018-12-13T04:39:52.222Z,91.71
2018-12-13T04:40:52.209Z,91.14
2018-12-13T04:41:52.200Z,91.14
2018-12-13T04:42:52.190Z,91.66
2018-12-13T04:43:52.176Z,91.77
2018-12-13T04:44:52.167Z,91.71
2018-12-13T04:45:52.154Z,91.66
2018-12-13T04:46:52.146Z,91.77
2018-12-13T04:47:52.135Z,91.66
2018-12-13T04:48:52.121Z,91.50
2018-12-13T04:49:52.113Z,91.39
2018-12-13T04:50:52.101Z,91.39
2018-12-13T04:51:52.094Z,91.60
2018-12-13T04:52:52.085Z,91.81
2018-12-13T04:53:52.069Z,91.81
2018-12-13T04:54:52.059Z,91.28
2018-12-13T04:55:52.048Z,91.71
2018-12-13T04:56:52.036Z,92.12
2018-12-13T04:57:52.027Z,91.28
2018-12-13T04:58:52.015Z,91.18
2018-12-13T04:59:52.004Z,91.81
2018-12-13T05:00:51.992Z,91.71
2018-12-13T05:01:51.986Z,91.81
2018-12-13T05:02:51.978Z,91.64
2018-12-13T05:03:51.959Z,91.71
2018-12-13T05:04:51.954Z,91.71
2018-12-13T05:05:51.938Z,91.71
2018-12-13T05:06:51.929Z,91.71
2018-12-13T05:07:51.916Z,91.81
2018-12-13T05:08:51.904Z,91.91
2018-12-13T05:09:51.902Z,91.71
2018-12-13T05:10:51.883Z,91.91
2018-12-13T05:11:51.872Z,91.81
2018-12-13T05:12:51.863Z,91.81
2018-12-13T05:13:51.852Z,91.81
2018-12-13T05:14:51.840Z,92.02
2018-12-13T05:15:51.828Z,92.12
2018-12-13T05:16:51.817Z,92.12
2018-12-13T05:17:51.809Z,92.22
2018-12-13T05:18:51.796Z,92.02
2018-12-13T05:19:51.786Z,91.71
2018-12-13T05:20:51.776Z,92.16
2018-12-13T05:21:51.769Z,92.12
2018-12-13T05:22:51.754Z,91.91
2018-12-13T05:23:51.743Z,91.91
2018-12-13T05:24:51.731Z,92.12
2018-12-13T05:25:51.722Z,92.22
2018-12-13T05:26:51.712Z,92.06
2018-12-13T05:27:51.702Z,91.81
2018-12-13T05:28:51.694Z,91.91
2018-12-13T05:29:51.677Z,92.12
2018-12-13T05:30:51.667Z,91.71
2018-12-13T05:31:51.655Z,91.71
2018-12-13T05:32:51.648Z,91.71
2018-12-13T05:33:51.637Z,91.71
2018-12-13T05:34:51.622Z,91.71
2018-12-13T05:35:51.613Z,91.81
2018-12-13T05:36:51.604Z,91.60
2018-12-13T05:37:51.591Z,91.91
2018-12-13T05:38:51.581Z,91.71
2018-12-13T05:39:51.568Z,92.33
2018-12-13T05:40:51.559Z,92.12
2018-12-13T05:41:51.547Z,92.22
2018-12-13T05:42:51.535Z,93.27
2018-12-13T05:43:51.527Z,94.20
2018-12-13T05:44:51.517Z,94.10
2018-12-13T05:45:51.503Z,93.48
2018-12-13T05:46:51.494Z,93.12
2018-12-13T05:47:51.482Z,92.49
2018-12-13T05:48:51.471Z,91.87
2018-12-13T05:49:51.461Z,91.35
2018-12-13T05:50:51.448Z,91.46
2018-12-13T05:51:51.437Z,91.71
2018-12-13T05:52:51.430Z,91.77
2018-12-13T05:53:51.416Z,91.35
2018-12-13T05:54:51.405Z,91.66
2018-12-13T05:55:51.406Z,91.25
2018-12-13T05:56:51.383Z,91.28
2018-12-13T05:57:51.381Z,91.60
2018-12-13T05:58:51.366Z,91.77
2018-12-13T05:59:51.352Z,91.46
2018-12-13T06:00:51.342Z,91.46
2018-12-13T06:01:51.400Z,91.14
2018-12-13T06:02:51.321Z,91.35
2018-12-13T06:03:51.309Z,91.14
2018-12-13T06:04:51.296Z,91.50
2018-12-13T06:05:51.286Z,91.77
2018-12-13T06:06:51.274Z,91.71
2018-12-13T06:07:54.865Z,91.66
2018-12-13T06:08:51.255Z,91.46
2018-12-13T06:09:51.248Z,91.14
2018-12-13T06:10:51.232Z,91.46
2018-12-13T06:11:51.223Z,91.46
2018-12-13T06:12:51.212Z,91.56
2018-12-13T06:13:51.232Z,91.81
2018-12-13T06:14:51.187Z,91.39
2018-12-13T06:15:51.176Z,90.97
2018-12-13T06:16:51.168Z,91.18
2018-12-13T06:17:51.158Z,91.81
2018-12-13T06:18:51.151Z,91.39
2018-12-13T06:19:51.133Z,91.71
2018-12-13T06:20:51.123Z,91.53
2018-12-13T06:21:51.114Z,91.60
2018-12-13T06:22:51.102Z,91.50
2018-12-13T06:23:51.096Z,91.71
2018-12-13T06:24:51.079Z,92.12
2018-12-13T06:25:51.073Z,92.12
2018-12-13T06:26:51.057Z,92.12
2018-12-13T06:27:51.047Z,92.12
2018-12-13T06:28:51.039Z,92.22
2018-12-13T06:29:51.034Z,92.22
2018-12-13T06:30:51.016Z,92.33
2018-12-13T06:31:51.004Z,92.22
2018-12-13T06:32:50.992Z,92.12
2018-12-13T06:33:50.984Z,92.33
2018-12-13T06:34:50.970Z,92.22
2018-12-13T06:35:50.972Z,92.16
2018-12-13T06:36:50.949Z,91.81
2018-12-13T06:37:50.939Z,91.75
2018-12-13T06:38:50.927Z,92.12
2018-12-13T06:39:50.919Z,92.37
2018-12-13T06:40:50.911Z,92.47
2018-12-13T06:41:50.900Z,92.16
2018-12-13T06:42:50.885Z,92.27
2018-12-13T06:43:52.284Z,93.10
2018-12-13T06:44:50.863Z,92.99
2018-12-13T06:45:50.857Z,92.99
2018-12-13T06:46:50.842Z,92.85
2018-12-13T06:47:50.832Z,93.27
2018-12-13T06:48:50.819Z,92.12
2018-12-13T06:49:50.807Z,92.22
2018-12-13T06:50:50.796Z,92.06
2018-12-13T06:51:50.789Z,92.54
2018-12-13T06:52:50.778Z,92.22
2018-12-13T06:53:50.764Z,92.22
2018-12-13T06:54:50.754Z,92.22
2018-12-13T06:55:50.742Z,92.22
2018-12-13T06:56:50.731Z,92.85
2018-12-13T06:57:50.724Z,92.85
2018-12-13T06:58:50.729Z,93.05
2018-12-13T06:59:50.700Z,92.33
2018-12-13T07:00:50.688Z,92.68
2018-12-13T07:01:50.677Z,93.16
2018-12-13T07:02:50.669Z,92.12
2018-12-13T07:03:50.657Z,92.12
2018-12-13T07:04:50.646Z,92.95
2018-12-13T07:05:50.632Z,95.87
2018-12-13T07:06:50.622Z,95.66
2018-12-13T07:07:50.613Z,94.62
2018-12-13T07:08:50.603Z,93.85
2018-12-13T07:09:50.592Z,95.93
2018-12-13T07:10:50.581Z,95.62
2018-12-13T07:11:50.569Z,94.99
2018-12-13T07:12:50.558Z,94.06
2018-12-13T07:13:50.550Z,93.85
2018-12-13T07:14:50.539Z,92.70
2018-12-13T07:15:50.526Z,92.29
2018-12-13T07:16:50.513Z,92.18
2018-12-13T07:17:50.504Z,92.12
2018-12-13T07:18:50.493Z,92.91
2018-12-13T07:19:50.487Z,92.18
2018-12-13T07:20:50.472Z,91.97
2018-12-13T07:21:50.461Z,91.46
2018-12-13T07:22:50.450Z,91.66
2018-12-13T07:23:50.438Z,91.14
2018-12-13T07:24:50.429Z,91.35
2018-12-13T07:25:50.421Z,90.93
2018-12-13T07:26:50.428Z,91.25
2018-12-13T07:27:50.397Z,91.25
2018-12-13T07:28:50.384Z,91.25
2018-12-13T07:29:50.373Z,91.56
2018-12-13T07:30:50.389Z,90.93
2018-12-13T07:31:50.352Z,91.08
2018-12-13T07:32:50.343Z,91.39
2018-12-13T07:33:50.330Z,91.22
2018-12-13T07:34:50.319Z,91.75
2018-12-13T07:35:50.308Z,92.31
2018-12-13T07:36:50.297Z,92.99
2018-12-13T07:37:50.293Z,92.79
2018-12-13T07:38:50.276Z,92.89
2018-12-13T07:39:50.269Z,92.99
2018-12-13T07:40:50.254Z,92.68
2018-12-13T07:41:50.243Z,92.79
2018-12-13T07:42:50.234Z,92.89
2018-12-13T07:43:50.222Z,92.99
2018-12-13T07:44:50.212Z,92.58
2018-12-13T07:45:50.198Z,92.37
2018-12-13T07:46:50.193Z,92.58
2018-12-13T07:47:50.178Z,93.10
2018-12-13T07:48:56.249Z,92.68
2018-12-13T07:49:51.155Z,93.10
2018-12-13T07:50:50.149Z,92.79
2018-12-13T07:51:50.135Z,92.79
2018-12-13T07:52:50.126Z,92.68
2018-12-13T07:53:50.114Z,93.10
2018-12-13T07:54:50.105Z,93.27
2018-12-13T07:55:50.099Z,92.33
2018-12-13T07:56:50.081Z,92.27
2018-12-13T07:57:50.069Z,92.58
2018-12-13T07:58:50.059Z,92.22
2018-12-13T07:59:50.048Z,91.71
2018-12-13T08:00:50.037Z,91.71
2018-12-13T08:01:50.027Z,92.22
2018-12-13T08:02:50.017Z,92.22
2018-12-13T08:03:50.004Z,91.71
2018-12-13T08:04:49.994Z,91.60
2018-12-13T08:05:49.984Z,91.71
2018-12-13T08:06:49.975Z,91.71
2018-12-13T08:07:49.966Z,91.71
2018-12-13T08:08:49.953Z,91.60
2018-12-13T08:09:49.943Z,91.53
2018-12-13T08:10:49.927Z,91.18
2018-12-13T08:11:49.919Z,91.81
2018-12-13T08:12:49.909Z,91.75
2018-12-13T08:13:49.897Z,91.85
2018-12-13T08:14:49.886Z,92.16
2018-12-13T08:15:49.876Z,91.75
2018-12-13T08:16:49.864Z,92.06
2018-12-13T08:17:49.851Z,92.27
2018-12-13T08:18:49.842Z,92.16
2018-12-13T08:19:49.829Z,92.16
2018-12-13T08:20:49.822Z,91.75
2018-12-13T08:21:49.808Z,91.75
2018-12-13T08:22:49.948Z,91.75
2018-12-13T08:23:49.787Z,91.71
2018-12-13T08:24:49.776Z,91.43
2018-12-13T08:25:49.767Z,91.50
2018-12-13T08:26:49.756Z,90.87
2018-12-13T08:27:49.742Z,91.39
2018-12-13T08:28:49.734Z,90.97
2018-12-13T08:29:49.722Z,91.39
2018-12-13T08:30:49.711Z,91.39
2018-12-13T08:31:49.701Z,90.66
2018-12-13T08:32:49.690Z,90.77
2018-12-13T08:33:49.678Z,90.87
2018-12-13T08:34:49.667Z,90.97
2018-12-13T08:35:49.660Z,90.77
2018-12-13T08:36:49.647Z,90.97
2018-12-13T08:37:49.644Z,90.87
2018-12-13T08:38:49.624Z,90.87
2018-12-13T08:39:49.614Z,91.08
2018-12-13T08:40:49.603Z,91.08
2018-12-13T08:41:49.595Z,91.04
2018-12-13T08:42:49.586Z,90.97
2018-12-13T08:43:49.569Z,90.00
2018-12-13T08:44:49.559Z,90.25
2018-12-13T08:45:49.548Z,89.79
2018-12-13T08:46:49.541Z,89.83
2018-12-13T08:47:49.534Z,89.52
2018-12-13T08:48:49.515Z,89.89
2018-12-13T08:49:49.506Z,89.69
2018-12-13T08:50:49.494Z,89.58
2018-12-13T08:51:49.482Z,89.48
2018-12-13T08:52:49.471Z,89.58
2018-12-13T08:53:49.460Z,89.52
2018-12-13T08:54:49.454Z,89.58
2018-12-13T08:55:49.446Z,89.58
2018-12-13T08:56:49.430Z,89.79
2018-12-13T08:57:49.421Z,89.89
2018-12-13T08:58:49.406Z,90.20
2018-12-13T08:59:49.395Z,90.04
2018-12-13T09:00:49.385Z,89.83
2018-12-13T09:01:49.374Z,89.58
2018-12-13T09:02:49.363Z,89.58
2018-12-13T09:03:49.355Z,89.94
2018-12-13T09:04:49.344Z,89.83
2018-12-13T09:05:49.331Z,89.52
2018-12-13T09:06:49.322Z,89.83
2018-12-13T09:07:49.309Z,89.62
2018-12-13T09:08:49.315Z,89.89
2018-12-13T09:09:49.286Z,89.79
2018-12-13T09:10:49.275Z,89.79
2018-12-13T09:11:49.263Z,90.10
2018-12-13T09:12:49.253Z,90.04
2018-12-13T09:13:49.244Z,89.52
2018-12-13T09:14:49.232Z,89.52
2018-12-13T09:15:49.220Z,90.14
2018-12-13T09:16:49.210Z,89.79
2018-12-13T09:17:49.200Z,89.83
2018-12-13T09:18:49.190Z,90.14
2018-12-13T09:19:49.180Z,90.14
2018-12-13T09:20:49.212Z,89.94
2018-12-13T09:21:49.156Z,90.10
2018-12-13T09:22:49.143Z,90.25
2018-12-13T09:23:49.135Z,90.10
2018-12-13T09:24:49.123Z,90.04
2018-12-13T09:25:49.110Z,90.20
2018-12-13T09:26:49.102Z,90.56
2018-12-13T09:27:49.091Z,90.10
2018-12-13T09:28:49.079Z,90.00
2018-12-13T09:29:49.069Z,90.14
2018-12-13T09:30:49.059Z,89.37
2018-12-13T09:31:49.046Z,89.79
2018-12-13T09:32:49.035Z,90.10
2018-12-13T09:33:49.023Z,89.69
2018-12-13T09:34:49.013Z,89.89
2018-12-13T09:35:49.002Z,89.79
2018-12-13T09:36:48.994Z,90.04
2018-12-13T09:37:48.986Z,90.20
2018-12-13T09:38:48.969Z,89.58
2018-12-13T09:39:48.962Z,90.20
2018-12-13T09:40:48.948Z,90.10
2018-12-13T09:41:48.937Z,90.31
2018-12-13T09:42:48.925Z,90.41
2018-12-13T09:43:48.914Z,89.89
2018-12-13T09:44:48.904Z,89.52
2018-12-13T09:45:48.892Z,90.35
2018-12-13T09:46:48.901Z,90.25
2018-12-13T09:47:48.871Z,90.14
2018-12-13T09:48:49.467Z,90.25
2018-12-13T09:49:48.849Z,90.25
2018-12-13T09:50:48.838Z,90.14
2018-12-13T09:51:48.827Z,90.25
2018-12-13T09:52:48.818Z,90.04
2018-12-13T09:53:48.806Z,90.14
2018-12-13T09:54:48.800Z,89.62
2018-12-13T09:55:48.784Z,89.94
2018-12-13T09:56:48.772Z,89.62
2018-12-13T09:57:48.764Z,89.41
2018-12-13T09:58:48.750Z,89.73
2018-12-13T09:59:48.746Z,89.27
2018-12-13T10:00:48.729Z,89.48
2018-12-13T10:01:48.760Z,89.17
2018-12-13T10:02:48.707Z,88.96
2018-12-13T10:03:48.699Z,88.64
2018-12-13T10:04:48.684Z,88.43
2018-12-13T10:05:48.675Z,88.54
2018-12-13T10:06:48.662Z,88.96
2018-12-13T10:07:48.651Z,89.12
2018-12-13T10:08:48.646Z,88.92
2018-12-13T10:09:48.629Z,89.17
2018-12-13T10:10:48.620Z,89.27
2018-12-13T10:11:48.652Z,89.75
2018-12-13T10:12:48.597Z,88.50
2018-12-13T10:13:48.586Z,88.50
2018-12-13T10:14:48.574Z,89.02
2018-12-13T10:15:48.626Z,88.92
2018-12-13T10:16:48.554Z,88.09
2018-12-13T10:17:48.541Z,87.88
2018-12-13T10:18:48.535Z,88.09
2018-12-13T10:19:48.519Z,87.88
2018-12-13T10:20:48.508Z,87.88
2018-12-13T10:21:48.496Z,87.77
2018-12-13T10:22:48.489Z,88.09
2018-12-13T10:23:48.475Z,87.77
2018-12-13T10:24:48.464Z,87.66
2018-12-13T10:25:48.452Z,87.25
2018-12-13T10:26:48.443Z,87.66
2018-12-13T10:27:48.439Z,87.25
2018-12-13T10:28:48.420Z,87.29
2018-12-13T10:29:48.408Z,87.46
2018-12-13T10:30:48.397Z,87.92
2018-12-13T10:31:48.386Z,87.98
2018-12-13T10:32:48.375Z,88.81
2018-12-13T10:33:48.365Z,87.98
2018-12-13T10:34:48.352Z,87.98
2018-12-13T10:35:48.341Z,87.88
2018-12-13T10:36:48.333Z,87.66
2018-12-13T10:37:48.325Z,87.66
2018-12-13T10:38:53.014Z,87.66
2018-12-13T10:39:49.296Z,87.66
2018-12-13T10:40:48.288Z,88.09
2018-12-13T10:41:48.275Z,88.09
2018-12-13T10:42:48.265Z,87.88
2018-12-13T10:43:48.256Z,88.50
2018-12-13T10:44:48.246Z,89.12
2018-12-13T10:45:48.232Z,88.19
2018-12-13T10:46:48.225Z,88.40
2018-12-13T10:47:48.210Z,88.92
2018-12-13T10:48:48.200Z,89.02
2018-12-13T10:49:48.187Z,88.92
2018-12-13T10:50:48.176Z,88.71
2018-12-13T10:51:48.166Z,87.66
2018-12-13T10:52:48.154Z,88.09
2018-12-13T10:53:48.143Z,87.98
2018-12-13T10:54:48.132Z,88.29
2018-12-13T10:55:48.178Z,89.02
2018-12-13T10:56:48.110Z,87.88
2018-12-13T10:57:48.098Z,88.81
2018-12-13T10:58:48.088Z,89.02
2018-12-13T10:59:48.078Z,88.77
2018-12-13T11:00:48.066Z,88.04
2018-12-13T11:01:48.055Z,88.09
2018-12-13T11:02:48.043Z,87.94
2018-12-13T11:03:48.033Z,87.88
2018-12-13T11:04:48.022Z,87.88
2018-12-13T11:05:48.011Z,87.73
2018-12-13T11:06:48.001Z,87.73
2018-12-13T11:07:47.991Z,87.66
2018-12-13T11:08:47.978Z,88.29
2018-12-13T11:09:47.966Z,88.19
2018-12-13T11:10:47.955Z,87.66
2018-12-13T11:11:47.945Z,88.81
2018-12-13T11:12:47.935Z,87.88
2018-12-13T11:13:47.923Z,88.09
2018-12-13T11:14:47.913Z,88.19
2018-12-13T11:15:47.899Z,87.15
2018-12-13T11:16:47.889Z,86.83
2018-12-13T11:17:47.878Z,87.15
2018-12-13T11:18:47.870Z,87.35
2018-12-13T11:19:47.855Z,87.56
2018-12-13T11:20:47.844Z,87.56
2018-12-13T11:21:47.835Z,87.35
2018-12-13T11:22:47.823Z,87.35
2018-12-13T11:23:47.813Z,87.08
2018-12-13T11:24:47.802Z,87.50
2018-12-13T11:25:47.793Z,87.40
2018-12-13T11:26:47.782Z,87.50
2018-12-13T11:27:47.767Z,87.19
2018-12-13T11:28:47.755Z,87.60
2018-12-13T11:29:47.748Z,87.81
2018-12-13T11:30:47.734Z,87.29
2018-12-13T11:31:47.724Z,87.60
2018-12-13T11:32:47.712Z,87.92
2018-12-13T11:33:47.702Z,88.12
2018-12-13T11:34:47.694Z,88.02
2018-12-13T11:35:47.683Z,88.23
2018-12-13T11:36:47.669Z,88.43
2018-12-13T11:37:47.658Z,88.33
2018-12-13T11:38:47.647Z,88.75
2018-12-13T11:39:47.638Z,88.64
2018-12-13T11:40:47.627Z,89.48
2018-12-13T11:41:47.617Z,90.20
2018-12-13T11:42:47.604Z,89.58
2018-12-13T11:43:47.595Z,89.17
2018-12-13T11:44:47.582Z,89.17
2018-12-13T11:45:47.571Z,89.23
2018-12-13T11:46:47.562Z,89.12
2018-12-13T11:47:47.551Z,89.64
2018-12-13T11:48:47.541Z,89.33
2018-12-13T11:49:47.533Z,89.02
2018-12-13T11:50:47.517Z,87.81
2018-12-13T11:51:47.513Z,88.96
2018-12-13T11:52:47.495Z,88.33
2018-12-13T11:53:47.484Z,88.54
2018-12-13T11:54:47.473Z,88.64
2018-12-13T11:55:47.464Z,88.43
2018-12-13T11:56:47.453Z,88.48
2018-12-13T11:57:47.441Z,89.20
2018-12-13T11:58:47.431Z,89.31
2018-12-13T11:59:47.420Z,89.41
2018-12-13T12:00:47.407Z,89.31
2018-12-13T12:01:47.397Z,89.10
2018-12-13T12:02:47.391Z,89.31
2018-12-13T12:03:47.376Z,89.20
2018-12-13T12:04:47.370Z,89.52
2018-12-13T12:05:47.357Z,89.62
2018-12-13T12:06:47.343Z,89.73
2018-12-13T12:07:47.334Z,89.52
2018-12-13T12:08:47.328Z,90.45
2018-12-13T12:09:47.320Z,90.45
2018-12-13T12:10:47.304Z,90.04
2018-12-13T12:11:47.292Z,90.35
2018-12-13T12:12:47.277Z,90.14
2018-12-13T12:13:47.267Z,90.81
2018-12-13T12:14:47.257Z,90.29
2018-12-13T12:15:47.245Z,90.25
2018-12-13T12:16:47.235Z,90.35
2018-12-13T12:17:47.228Z,90.87
2018-12-13T12:18:47.214Z,90.87
2018-12-13T12:19:47.202Z,91.08
2018-12-13T12:20:47.191Z,91.18
2018-12-13T12:21:47.180Z,90.87
2018-12-13T12:22:47.171Z,91.08
2018-12-13T12:23:47.159Z,91.18
2018-12-13T12:24:47.151Z,90.97
2018-12-13T12:25:47.137Z,91.18
2018-12-13T12:26:47.129Z,91.53
2018-12-13T12:27:47.115Z,91.28
2018-12-13T12:28:47.104Z,91.85
2018-12-13T12:29:47.096Z,91.50
2018-12-13T12:30:47.084Z,91.39
2018-12-13T12:31:47.072Z,91.64
2018-12-13T12:32:47.060Z,91.75
2018-12-13T12:33:47.050Z,92.06
2018-12-13T12:34:47.039Z,91.71
2018-12-13T12:35:47.029Z,91.53
2018-12-13T12:36:47.020Z,92.22
2018-12-13T12:37:47.006Z,92.16
2018-12-13T12:38:46.998Z,92.22
2018-12-13T12:39:46.984Z,92.95
2018-12-13T12:40:46.980Z,91.81
2018-12-13T12:41:46.964Z,91.71
2018-12-13T12:42:46.953Z,92.12
2018-12-13T12:43:46.950Z,91.08
2018-12-13T12:44:46.936Z,91.71
2018-12-13T12:45:46.922Z,91.81
2018-12-13T12:46:46.910Z,91.18
2018-12-13T12:47:46.904Z,91.08
2018-12-13T12:48:46.888Z,90.77
2018-12-13T12:49:46.877Z,91.50
2018-12-13T12:50:46.864Z,91.08
2018-12-13T12:51:46.855Z,90.70
2018-12-13T12:52:46.844Z,91.08
2018-12-13T12:53:46.833Z,91.12
2018-12-13T12:54:46.821Z,91.12
2018-12-13T12:55:46.811Z,91.27
2018-12-13T12:56:46.800Z,91.22